METAR Data
IDs: Format: Raw Decoded Include TAF

Data at: 2021 UTC 01 Oct 2022

KATW 011945Z 00000KT 10SM CLR 20/08 A3024

KATW 011722Z 0118/0218 05006KT P6SM SCT250
  FM020000 04005KT P6SM SCT100
  FM020400 05005KT P6SM BKN100
  FM020900 06005KT P6SM BKN080